Time;durP1;ratioP1;P1;durP2;ratioP2;P2;SDS_P1;SDS_P2;PMS_P1;PMS_P2;Temp;Humidity;BMP_temperature;BMP_pressure;BME280_temperature;BME280_humidity;BME280_pressure;Samples;Min_cycle;Max_cycle;Signal;HPM_P1;HPM_P2
2023/09/21 00:03:56;;;;;;;4.25;2.97;;;;;;;20.07;60.20;99121.03;10351578;28;20316;-63
2023/09/21 00:08:59;;;;;;;3.83;3.00;;;;;;;20.01;60.35;99117.34;10351595;28;20062;-63
2023/09/21 00:14:00;;;;;;;4.57;2.70;;;;;;;19.86;60.43;99101.41;10347824;28;20585;-63
2023/09/21 00:19:06;;;;;;;3.60;3.08;;;;;;;19.86;60.89;99100.53;10340242;28;20062;-63
2023/09/21 00:24:16;;;;;;;3.58;2.58;;;;;;;19.77;61.04;99098.09;10346276;28;20053;-63
2023/09/21 00:29:17;;;;;;;5.35;3.35;;;;;;;19.69;61.56;99090.16;10351118;28;20303;-64
2023/09/21 00:34:19;;;;;;;4.00;3.20;;;;;;;19.65;61.61;99098.91;10348701;28;20571;-64
2023/09/21 00:39:20;;;;;;;3.50;2.60;;;;;;;19.56;61.79;99087.50;10372901;28;20095;-62
2023/09/21 00:44:22;;;;;;;4.40;2.60;;;;;;;19.54;61.95;99084.19;10405645;28;20057;-64
2023/09/21 00:49:24;;;;;;;3.70;3.10;;;;;;;19.48;62.42;99082.34;10367820;28;20046;-63
2023/09/21 00:54:25;;;;;;;3.17;2.58;;;;;;;19.46;62.66;99068.22;10342337;28;20119;-63
2023/09/21 00:59:29;;;;;;;3.95;3.30;;;;;;;19.41;62.73;99068.84;10345796;28;20111;-64
2023/09/21 01:04:30;;;;;;;5.30;3.33;;;;;;;19.37;63.02;99071.13;10350306;28;20185;-63
2023/09/21 01:09:32;;;;;;;3.17;2.72;;;;;;;19.28;63.02;99072.41;10348609;28;20484;-64
2023/09/21 01:14:35;;;;;;;3.55;2.83;;;;;;;19.28;63.16;99067.00;10343843;28;20154;-63
2023/09/21 01:19:36;;;;;;;3.75;3.33;;;;;;;19.22;63.28;99062.44;10349521;28;20485;-65
2023/09/21 01:24:39;;;;;;;4.95;3.15;;;;;;;19.16;63.26;99063.28;10341673;28;20256;-63
2023/09/21 01:29:41;;;;;;;3.42;2.72;;;;;;;19.11;63.60;99066.59;10342637;28;20613;-64
2023/09/21 01:34:46;;;;;;;3.53;3.22;;;;;;;19.03;63.86;99053.31;10345450;28;20073;-62
2023/09/21 01:39:48;;;;;;;4.53;3.22;;;;;;;19.02;64.24;99052.50;10343739;28;20198;-64
2023/09/21 01:44:49;;;;;;;5.10;3.05;;;;;;;18.95;64.48;99043.56;10333454;28;20056;-64
2023/09/21 01:49:51;;;;;;;3.88;3.10;;;;;;;18.89;64.05;99028.22;10345556;28;20041;-62
2023/09/21 01:54:52;;;;;;;4.20;3.03;;;;;;;18.90;64.62;99040.69;10351377;28;20139;-63
2023/09/21 01:59:54;;;;;;;3.60;2.92;;;;;;;18.86;64.71;99039.44;10347539;28;20065;-63
2023/09/21 02:04:56;;;;;;;5.88;3.60;;;;;;;18.75;64.61;99024.69;10353703;28;20045;-65
2023/09/21 02:09:58;;;;;;;7.55;3.50;;;;;;;18.77;64.98;99049.56;10354158;28;20544;-63
2023/09/21 02:14:59;;;;;;;4.15;3.75;;;;;;;18.75;65.07;99045.41;10344306;28;20570;-64
2023/09/21 02:20:01;;;;;;;5.43;3.47;;;;;;;18.72;65.15;99047.47;10339433;28;20351;-64
2023/09/21 02:25:05;;;;;;;4.95;3.50;;;;;;;18.69;64.95;99041.66;10354553;28;20053;-64
2023/09/21 02:30:13;;;;;;;3.80;3.38;;;;;;;18.69;65.25;99042.50;10345197;28;20046;-63
2023/09/21 02:35:17;;;;;;;5.20;3.63;;;;;;;18.71;65.00;99040.41;10350390;28;20104;-63
2023/09/21 02:40:19;;;;;;;;;;;;;;;18.66;65.38;99015.97;10338508;28;20086;-63
2023/09/21 02:45:23;;;;;;;4.40;3.72;;;;;;;18.65;65.32;99013.47;10341093;28;19924;-62
2023/09/21 02:50:27;;;;;;;4.32;3.60;;;;;;;18.60;65.29;98997.06;10350199;28;20049;-64
2023/09/21 02:55:29;;;;;;;4.40;3.40;;;;;;;18.61;65.33;98991.47;10352644;28;20053;-61
2023/09/21 03:00:39;;;;;;;6.38;3.25;;;;;;;18.48;65.45;98969.91;10341110;28;20045;-63
2023/09/21 03:05:42;;;;;;;4.15;3.75;;;;;;;18.53;65.13;98992.50;10350838;28;20049;-64
2023/09/21 03:10:47;;;;;;;5.30;3.53;;;;;;;18.53;65.71;98997.09;10350226;28;20168;-63
2023/09/21 03:15:51;;;;;;;4.93;3.83;;;;;;;18.53;65.38;98994.41;10355888;28;20455;-63
2023/09/21 03:20:53;;;;;;;4.28;3.47;;;;;;;18.45;65.53;98981.09;10350541;28;20049;-64
2023/09/21 03:25:55;;;;;;;5.03;4.45;;;;;;;18.50;65.69;98987.53;10336234;28;20358;-64
2023/09/21 03:30:57;;;;;;;4.90;3.53;;;;;;;18.43;65.79;98981.31;10363223;28;20052;-63
2023/09/21 03:35:59;;;;;;;4.35;3.95;;;;;;;18.45;65.95;98973.03;10389857;28;20050;-62
2023/09/21 03:41:00;;;;;;;6.93;3.60;;;;;;;18.41;65.89;98974.50;10360314;28;20140;-63
2023/09/21 03:46:02;;;;;;;5.22;3.95;;;;;;;18.39;65.78;98961.22;10345984;28;20089;-64
2023/09/21 03:51:03;;;;;;;5.20;3.92;;;;;;;18.30;66.04;98941.75;10346941;28;20133;-62
2023/09/21 03:56:05;;;;;;;3.97;3.58;;;;;;;18.36;66.32;98953.56;10349103;28;20045;-64
2023/09/21 04:01:06;;;;;;;5.82;3.60;;;;;;;18.25;66.25;98917.25;10349554;28;20174;-64
2023/09/21 04:06:08;;;;;;;4.82;4.35;;;;;;;18.37;66.11;98926.41;10342850;28;20045;-64
2023/09/21 04:11:09;;;;;;;4.82;3.55;;;;;;;18.37;66.01;98933.66;10344380;28;20120;-64
2023/09/21 04:16:11;;;;;;;3.90;3.45;;;;;;;18.29;66.04;98929.28;10336113;28;20075;-64
2023/09/21 04:21:13;;;;;;;4.95;3.35;;;;;;;18.30;66.21;98914.81;10345911;28;20413;-64
2023/09/21 04:26:20;;;;;;;3.92;3.42;;;;;;;18.25;66.44;98911.88;10345068;28;20048;-64
2023/09/21 04:31:21;;;;;;;5.10;3.60;;;;;;;18.25;66.39;98911.06;10346118;28;20704;-63
2023/09/21 04:36:24;;;;;;;5.93;3.78;;;;;;;18.25;66.63;98884.94;10340282;28;20072;-62
2023/09/21 04:41:27;;;;;;;6.22;3.88;;;;;;;18.26;66.40;98880.41;10349119;28;20041;-63
2023/09/21 04:46:31;;;;;;;5.57;3.33;;;;;;;18.18;66.60;98870.69;10346852;28;20052;-63
2023/09/21 04:51:33;;;;;;;4.18;3.60;;;;;;;18.28;66.52;98884.53;10327206;28;20708;-62
2023/09/21 04:56:36;;;;;;;6.22;3.42;;;;;;;18.19;66.47;98858.84;10343359;28;20195;-63
2023/09/21 05:01:38;;;;;;;;;;;;;;;18.30;66.19;98876.25;10349352;28;20396;-64
2023/09/21 05:06:39;;;;;;;4.88;3.10;;;;;;;18.17;66.14;98877.09;10341588;28;20358;-63
2023/09/21 05:11:41;;;;;;;4.03;3.20;;;;;;;18.18;66.15;98884.13;10335338;28;20053;-63
2023/09/21 05:16:43;;;;;;;3.97;3.40;;;;;;;18.25;66.43;98903.81;10345727;28;20049;-64
2023/09/21 05:21:44;;;;;;;4.45;3.42;;;;;;;18.18;67.49;98892.22;10348077;28;20064;-63
2023/09/21 05:26:46;;;;;;;6.63;3.70;;;;;;;18.29;68.12;98907.75;10344468;28;20058;-64
2023/09/21 05:31:49;;;;;;;4.55;4.10;;;;;;;18.33;68.21;98914.38;10334411;28;20490;-63
2023/09/21 05:36:51;;;;;;;4.20;3.50;;;;;;;18.34;67.08;98904.44;10340279;28;20046;-64
2023/09/21 05:41:53;;;;;;;3.67;3.35;;;;;;;18.30;67.13;98887.88;10344904;28;20073;-65
2023/09/21 05:46:54;;;;;;;6.03;4.10;;;;;;;18.38;66.91;98901.13;10333381;28;20104;-63
2023/09/21 05:52:00;;;;;;;6.55;3.53;;;;;;;18.47;66.95;98882.88;10336934;28;20235;-64
2023/09/21 05:57:04;;;;;;;5.43;3.63;;;;;;;18.42;66.53;98890.78;10342155;28;20045;-65
2023/09/21 06:02:08;;;;;;;4.00;3.22;;;;;;;18.49;66.96;98898.84;10343759;28;20496;-64
2023/09/21 06:07:09;;;;;;;7.13;3.72;;;;;;;18.54;66.50;98899.88;10333536;28;20354;-65
2023/09/21 06:12:11;;;;;;;4.88;3.20;;;;;;;18.53;66.42;98913.56;10346742;28;20805;-63
2023/09/21 06:17:13;;;;;;;11.82;4.68;;;;;;;18.50;66.22;98903.19;10343312;28;20057;-62
2023/09/21 06:22:16;;;;;;;8.47;4.30;;;;;;;18.60;66.98;98908.16;10343164;28;20581;-63
2023/09/21 06:27:18;;;;;;;10.00;4.35;;;;;;;18.60;66.28;98909.00;10340386;28;20453;-62
2023/09/21 06:32:22;;;;;;;7.43;3.60;;;;;;;18.55;66.17;98900.69;10341306;28;20236;-63
2023/09/21 06:37:24;;;;;;;;;;;;;;;18.66;66.62;98913.56;10345841;28;20704;-63
2023/09/21 06:42:27;;;;;;;7.90;4.20;;;;;;;18.67;66.54;98909.78;10332150;28;19925;-64
2023/09/21 06:47:28;;;;;;;9.65;4.50;;;;;;;18.61;66.41;98899.03;10316097;28;20062;-64
2023/09/21 06:52:30;;;;;;;8.55;4.20;;;;;;;18.62;66.67;98890.75;10306298;28;20569;-64
2023/09/21 06:57:34;;;;;;;12.60;4.43;;;;;;;18.76;66.80;98906.91;10287887;28;20044;-63
2023/09/21 07:02:36;;;;;;;;;;;;;;;18.81;66.98;98904.38;10308882;28;20590;-64
2023/09/21 07:07:38;;;;;;;10.18;4.40;;;;;;;18.72;66.56;98874.97;10307970;28;20470;-63
2023/09/21 07:12:39;;;;;;;5.70;4.38;;;;;;;18.92;66.88;98900.28;10306807;28;20588;-62
2023/09/21 07:17:41;;;;;;;8.50;4.55;;;;;;;18.99;66.88;98890.28;10308915;28;20049;-63
2023/09/21 07:22:45;;;;;;;5.78;4.00;;;;;;;19.02;67.16;98890.69;10348843;28;20159;-63
2023/09/21 07:27:47;;;;;;;5.63;4.68;;;;;;;19.04;66.89;98891.31;10345046;28;20221;-64
2023/09/21 07:32:49;;;;;;;9.75;4.10;;;;;;;19.14;67.16;98898.97;10338182;28;20053;-64
2023/09/21 07:37:51;;;;;;;4.55;3.90;;;;;;;19.21;67.02;98882.75;10334000;28;20056;-64
2023/09/21 07:42:53;;;;;;;7.38;4.43;;;;;;;19.28;67.00;98872.78;10347412;28;20283;-64
2023/09/21 07:47:55;;;;;;;4.10;3.70;;;;;;;19.32;66.81;98856.97;10346068;28;20275;-62
2023/09/21 07:52:56;;;;;;;4.82;3.63;;;;;;;19.35;67.22;98857.38;10346078;28;20062;-63
2023/09/21 07:57:58;;;;;;;7.28;4.75;;;;;;;19.36;66.43;98861.72;10341389;28;20127;-63
2023/09/21 08:02:59;;;;;;;5.07;3.50;;;;;;;19.43;66.33;98870.63;10348242;28;20487;-64
2023/09/21 08:08:01;;;;;;;5.85;3.50;;;;;;;19.36;66.50;98850.13;10346834;28;20440;-63
2023/09/21 08:13:03;;;;;;;7.65;3.10;;;;;;;19.45;66.94;98856.09;10345103;28;20072;-63
2023/09/21 08:18:07;;;;;;;6.20;3.00;;;;;;;19.54;66.55;98871.81;10330163;28;20460;-64
2023/09/21 08:23:09;;;;;;;6.00;3.30;;;;;;;19.56;66.98;98885.94;10346410;28;20045;-64
2023/09/21 08:28:10;;;;;;;4.88;2.83;;;;;;;19.61;67.22;98866.38;10346261;28;20107;-64
2023/09/21 08:33:12;;;;;;;6.45;3.40;;;;;;;19.57;66.34;98851.66;10348148;28;20134;-64
2023/09/21 08:38:13;;;;;;;5.25;2.95;;;;;;;19.66;66.91;98855.75;10344839;28;20054;-64
2023/09/21 08:43:20;;;;;;;4.30;3.08;;;;;;;19.69;67.06;98847.22;10327635;28;20428;-63
2023/09/21 08:48:23;;;;;;;7.22;4.53;;;;;;;19.53;67.17;98807.25;10346388;28;20140;-63
2023/09/21 08:53:26;;;;;;;7.32;4.18;;;;;;;19.73;66.75;98840.34;10341978;28;20522;-62
2023/09/21 08:58:33;;;;;;;5.97;3.95;;;;;;;19.74;67.04;98827.66;10346228;28;20420;-62
2023/09/21 09:03:35;;;;;;;7.30;4.05;;;;;;;19.68;67.21;98804.25;10327271;28;20042;-64
2023/09/21 09:08:36;;;;;;;5.97;3.88;;;;;;;19.80;67.20;98809.81;10330679;28;20668;-63
2023/09/21 09:13:40;;;;;;;8.15;4.28;;;;;;;19.83;67.53;98798.56;10342418;28;20080;-63
2023/09/21 09:18:44;;;;;;;6.15;3.90;;;;;;;19.81;67.26;98789.88;10341357;28;20064;-64
2023/09/21 09:23:47;;;;;;;9.20;4.35;;;;;;;19.91;67.40;98801.03;10344462;28;20052;-63
2023/09/21 09:28:48;;;;;;;5.10;3.83;;;;;;;19.95;67.77;98791.41;10347653;28;20740;-64
2023/09/21 09:33:50;;;;;;;4.30;3.35;;;;;;;20.07;67.12;98794.22;10344327;28;20536;-64
2023/09/21 09:38:52;;;;;;;5.22;3.42;;;;;;;20.20;67.57;98788.72;10345133;28;20060;-63
2023/09/21 09:43:58;;;;;;;5.17;3.37;;;;;;;20.38;67.09;98779.81;10336058;28;20243;-62
2023/09/21 09:49:02;;;;;;;5.07;3.30;;;;;;;20.57;66.45;98769.03;10343590;28;20050;-64
2023/09/21 09:54:04;;;;;;;7.03;3.63;;;;;;;20.80;65.66;98771.06;10343007;28;20107;-63
2023/09/21 09:59:08;;;;;;;3.78;2.70;;;;;;;21.43;64.36;98753.56;10342484;28;20117;-63
2023/09/21 10:04:09;;;;;;;;;;;;;;;21.95;60.53;98754.88;10344176;28;20524;-63
2023/09/21 10:09:13;;;;;;;5.38;2.85;;;;;;;22.44;59.50;98754.66;10324445;28;19925;-63
2023/09/21 10:14:17;;;;;;;4.75;2.60;;;;;;;22.66;58.74;98738.59;10350757;28;20049;-63
2023/09/21 10:19:28;;;;;;;6.20;3.15;;;;;;;23.06;59.13;98737.75;10350393;28;20064;-63
2023/09/21 10:24:30;;;;;;;5.47;3.08;;;;;;;23.13;58.22;98733.03;10351803;28;20285;-63
2023/09/21 10:29:36;;;;;;;4.85;2.92;;;;;;;23.01;57.52;98726.81;10330988;28;20119;-63
2023/09/21 10:34:45;;;;;;;5.72;2.17;;;;;;;22.88;56.89;98725.19;10348795;28;20045;-63
2023/09/21 10:39:57;;;;;;;5.38;3.28;;;;;;;22.80;56.90;98722.88;10344151;28;20517;-62
2023/09/21 10:45:07;;;;;;;7.05;3.50;;;;;;;22.68;58.47;98701.22;10332663;28;20144;-63
2023/09/21 10:50:18;;;;;;;6.63;3.75;;;;;;;22.80;58.56;98712.84;10351242;28;20421;-63
2023/09/21 10:55:21;;;;;;;5.28;3.25;;;;;;;22.77;59.08;98706.03;10316608;28;20061;-63
2023/09/21 11:00:25;;;;;;;6.93;3.28;;;;;;;22.69;59.60;98697.44;10305127;28;20058;-64
2023/09/21 11:05:27;;;;;;;5.75;3.45;;;;;;;22.68;60.13;98698.50;10345979;28;20062;-63
2023/09/21 11:10:31;;;;;;;5.50;3.25;;;;;;;22.62;60.49;98700.28;10350482;28;20050;-64
2023/09/21 11:15:33;;;;;;;5.55;2.95;;;;;;;22.55;60.91;98689.59;10351904;28;20715;-62
2023/09/21 11:20:35;;;;;;;3.72;2.88;;;;;;;22.47;61.12;98692.66;10334548;28;20060;-64
2023/09/21 11:25:37;;;;;;;3.90;2.72;;;;;;;22.44;61.82;98682.28;10350375;28;20133;-64
2023/09/21 11:30:42;;;;;;;4.57;2.70;;;;;;;22.47;61.77;98670.97;10345144;28;20060;-63
2023/09/21 11:35:44;;;;;;;5.68;2.60;;;;;;;22.41;62.04;98655.66;10352031;28;20135;-65
2023/09/21 11:40:49;;;;;;;3.80;2.65;;;;;;;22.51;61.95;98655.88;10349763;28;20698;-64
2023/09/21 11:45:52;;;;;;;3.38;2.40;;;;;;;22.47;62.53;98648.47;10346080;28;20057;-64
2023/09/21 11:50:54;;;;;;;4.38;1.90;;;;;;;22.37;62.44;98627.41;10342392;28;20453;-63
2023/09/21 11:55:55;;;;;;;4.07;1.92;;;;;;;22.42;62.69;98613.94;10344789;28;20528;-63
2023/09/21 12:06:27;;;;;;;5.25;2.20;;;;;;;22.46;62.41;98598.84;10333457;28;20076;-63
2023/09/21 12:11:29;;;;;;;3.35;2.20;;;;;;;22.58;62.19;98618.59;10348344;28;20148;-64
2023/09/21 12:16:31;;;;;;;3.45;2.13;;;;;;;22.66;62.16;98603.03;10347070;28;20049;-65
2023/09/21 12:21:32;;;;;;;2.22;1.60;;;;;;;22.66;61.92;98592.16;10346523;28;20049;-64
2023/09/21 12:26:36;;;;;;;2.42;1.70;;;;;;;22.83;61.61;98592.19;10350393;28;20574;-63
2023/09/21 12:31:38;;;;;;;2.85;1.50;;;;;;;22.92;61.73;98591.56;10348595;28;20072;-64
2023/09/21 12:37:00;;;;;;;3.05;1.63;;;;;;;22.99;61.45;98579.72;10346287;28;20618;-63
2023/09/21 12:42:02;;;;;;;3.05;1.95;;;;;;;23.06;61.63;98569.53;10341896;28;20057;-64
2023/09/21 12:47:04;;;;;;;2.33;1.90;;;;;;;23.08;61.46;98551.94;10336180;28;20084;-64
2023/09/21 12:52:05;;;;;;;2.10;1.70;;;;;;;23.35;61.14;98542.34;10342192;28;20052;-64
2023/09/21 12:57:07;;;;;;;3.53;1.70;;;;;;;24.29;58.72;98546.84;10335249;28;20570;-63
2023/09/21 13:02:09;;;;;;;3.08;1.90;;;;;;;25.35;55.69;98535.59;10305151;28;20255;-63
2023/09/21 13:07:10;;;;;;;2.35;2.13;;;;;;;25.99;53.16;98525.59;10301685;28;20608;-63
2023/09/21 13:12:12;;;;;;;2.72;1.85;;;;;;;26.14;52.18;98513.91;10305176;28;20054;-63
2023/09/21 13:17:14;;;;;;;2.17;1.17;;;;;;;25.85;52.79;98511.59;10308541;28;20053;-62
2023/09/21 13:22:16;;;;;;;1.60;1.27;;;;;;;25.52;53.53;98494.53;10305307;28;20073;-62
2023/09/21 13:27:18;;;;;;;1.50;1.13;;;;;;;25.19;54.53;98485.59;10305289;28;20746;-61
2023/09/21 13:32:20;;;;;;;1.50;1.20;;;;;;;24.95;55.57;98472.41;10300130;28;20128;-64
2023/09/21 13:37:21;;;;;;;3.25;1.50;;;;;;;24.75;56.62;98469.53;10299214;28;20059;-63
2023/09/21 13:42:23;;;;;;;2.05;1.33;;;;;;;24.56;56.37;98461.72;10300599;28;20081;-64
2023/09/21 13:47:26;;;;;;;3.47;1.60;;;;;;;24.52;56.86;98464.13;10306531;28;20057;-62
2023/09/21 13:52:27;;;;;;;1.88;1.20;;;;;;;24.32;57.60;98451.19;10308153;28;20076;-67
2023/09/21 13:57:29;;;;;;;4.05;1.23;;;;;;;24.28;58.06;98450.03;10313489;28;20507;-63
2023/09/21 14:02:31;;;;;;;5.55;1.10;;;;;;;24.39;57.16;98433.84;10332372;28;20060;-64
2023/09/21 14:07:32;;;;;;;2.20;0.98;;;;;;;24.39;57.06;98429.19;10349170;28;20558;-64
2023/09/21 14:12:34;;;;;;;1.85;1.10;;;;;;;24.31;56.29;98411.47;10350644;28;20060;-64
2023/09/21 14:17:36;;;;;;;2.42;0.65;;;;;;;24.35;54.85;98409.88;10351599;28;20492;-63
2023/09/21 14:22:40;;;;;;;2.35;0.80;;;;;;;24.34;54.99;98400.06;10334780;28;20077;-64
2023/09/21 14:27:42;;;;;;;2.67;0.90;;;;;;;24.23;54.83;98397.53;10355249;28;20534;-63
2023/09/21 14:32:44;;;;;;;2.40;0.70;;;;;;;24.15;54.71;98387.94;10329106;28;20077;-64
2023/09/21 14:37:45;;;;;;;1.80;0.70;;;;;;;24.14;54.84;98387.13;10350834;28;20056;-64
2023/09/21 14:42:47;;;;;;;1.33;0.82;;;;;;;24.10;53.86;98377.03;10348265;28;20181;-64
2023/09/21 14:47:49;;;;;;;1.80;0.80;;;;;;;24.27;54.86;98383.16;10346958;28;20054;-64
2023/09/21 14:52:52;;;;;;;2.20;0.65;;;;;;;24.28;54.36;98382.09;10349526;28;20269;-63
2023/09/21 14:57:54;;;;;;;1.33;0.88;;;;;;;24.31;54.50;98381.56;10345005;28;20096;-64
2023/09/21 15:02:56;;;;;;;1.98;0.77;;;;;;;24.23;54.22;98375.78;10347904;28;20057;-62
2023/09/21 15:07:57;;;;;;;4.03;0.85;;;;;;;24.26;54.33;98373.38;10350888;28;20112;-63
2023/09/21 15:13:14;;;;;;;0.73;0.20;;;;;;;24.29;54.33;98372.84;10309207;28;20046;-64
2023/09/21 15:18:16;;;;;;;2.15;0.45;;;;;;;24.29;54.18;98370.13;10307858;28;20326;-65
2023/09/21 15:23:20;;;;;;;1.10;0.60;;;;;;;24.28;53.90;98362.25;10311127;28;20283;-65
2023/09/21 15:28:22;;;;;;;2.60;0.90;;;;;;;24.17;52.94;98355.91;10310066;28;20236;-62
2023/09/21 15:33:23;;;;;;;0.93;0.40;;;;;;;24.00;53.38;98329.69;10311344;28;20089;-65
2023/09/21 15:38:34;;;;;;;4.43;0.50;;;;;;;24.11;53.94;98343.31;10305294;28;20058;-64
2023/09/21 15:43:37;;;;;;;2.05;0.68;;;;;;;24.08;53.91;98346.56;10307864;28;20131;-63
2023/09/21 15:48:38;;;;;;;;;;;;;;;23.86;54.03;98304.00;10311093;28;20483;-64
2023/09/21 15:53:40;;;;;;;1.83;0.63;;;;;;;23.98;54.46;98331.81;10325547;28;20450;-63
2023/09/21 15:58:42;;;;;;;1.52;1.10;;;;;;;23.97;54.66;98335.59;10304160;28;20054;-64
2023/09/21 16:03:44;;;;;;;2.20;0.70;;;;;;;23.90;54.75;98326.88;10307253;28;20720;-65
2023/09/21 16:08:45;;;;;;;1.48;0.60;;;;;;;23.88;55.03;98315.41;10304290;28;20047;-64
2023/09/21 16:13:47;;;;;;;2.85;0.98;;;;;;;23.82;55.29;98297.41;10306896;28;20108;-62
2023/09/21 16:18:51;;;;;;;3.43;1.30;;;;;;;23.86;55.38;98295.03;10304691;28;20170;-65
2023/09/21 16:23:52;;;;;;;2.38;1.40;;;;;;;23.80;55.36;98286.00;10303409;28;21039;-63
2023/09/21 16:28:53;;;;;;;2.03;0.90;;;;;;;23.72;55.01;98279.13;10307633;28;20147;-63
2023/09/21 16:33:55;;;;;;;5.20;1.30;;;;;;;23.58;54.88;98242.59;10307073;28;20073;-63
2023/09/21 16:38:56;;;;;;;1.83;0.75;;;;;;;23.70;54.75;98273.13;10308267;28;20054;-64
2023/09/21 16:43:58;;;;;;;1.95;1.27;;;;;;;23.64;54.72;98266.84;10306879;28;20046;-64
2023/09/21 16:49:01;;;;;;;3.20;1.00;;;;;;;23.64;54.68;98276.88;10307748;28;20054;-66
2023/09/21 16:54:02;;;;;;;;;;;;;;;23.63;54.97;98269.81;10310434;28;20138;-64
2023/09/21 16:59:04;;;;;;;3.40;1.17;;;;;;;23.54;55.28;98255.03;10306068;28;19968;-64
2023/09/21 17:04:05;;;;;;;1.67;1.20;;;;;;;23.57;56.06;98259.97;10303495;28;20058;-64
2023/09/21 17:09:08;;;;;;;3.97;1.60;;;;;;;23.57;56.00;98249.09;10306304;28;20053;-64
2023/09/21 17:14:09;;;;;;;5.22;1.33;;;;;;;23.42;56.14;98247.06;10303182;28;20498;-65
2023/09/21 17:19:11;;;;;;;4.28;1.60;;;;;;;23.47;55.85;98244.41;10304082;28;20362;-63
2023/09/21 17:24:12;;;;;;;1.85;1.20;;;;;;;23.41;56.65;98264.44;10302377;28;20186;-63
2023/09/21 17:29:14;;;;;;;2.35;1.52;;;;;;;23.35;56.78;98262.75;10306266;28;20166;-65
2023/09/21 17:34:15;;;;;;;3.22;1.80;;;;;;;23.32;57.43;98263.25;10305008;28;20046;-63
2023/09/21 17:39:19;;;;;;;7.57;3.17;;;;;;;23.32;62.57;98287.69;10294265;28;20062;-64
2023/09/21 17:44:20;;;;;;;6.90;2.10;;;;;;;;;;10301981;28;20085;-64
2023/09/21 17:49:22;;;;;;;4.30;1.25;;;;;;;22.49;66.36;98245.97;10306294;28;20054;-63
2023/09/21 17:54:23;;;;;;;3.75;1.98;;;;;;;22.45;67.32;98242.09;10304582;28;20092;-63
2023/09/21 17:59:25;;;;;;;3.10;1.40;;;;;;;22.37;68.32;98265.03;10304528;28;20103;-63
2023/09/21 18:04:26;;;;;;;3.28;1.90;;;;;;;22.34;70.55;98275.53;10303297;28;20821;-63
2023/09/21 18:09:28;;;;;;;5.78;2.20;;;;;;;22.27;72.25;98354.28;10305675;28;20620;-63
2023/09/21 18:14:30;;;;;;;3.05;1.15;;;;;;;21.94;70.29;98368.63;10299811;28;20093;-64
2023/09/21 18:19:32;;;;;;;4.72;0.70;;;;;;;21.70;66.10;98390.38;10307969;28;20767;-63
2023/09/21 18:24:34;;;;;;;1.27;0.10;;;;;;;21.58;64.39;98379.59;10302845;28;20061;-64
2023/09/21 18:29:35;;;;;;;0.85;0.40;;;;;;;21.61;65.45;98389.13;10304920;28;20046;-64
2023/09/21 18:34:37;;;;;;;0.47;0.45;;;;;;;21.55;64.52;98407.16;10302478;28;20054;-63
2023/09/21 18:39:38;;;;;;;0.50;0.20;;;;;;;21.48;64.73;98399.16;10311275;28;20053;-64
2023/09/21 18:44:40;;;;;;;2.17;0.22;;;;;;;21.39;67.37;98388.91;10307314;28;20178;-64
2023/09/21 18:49:41;;;;;;;1.60;0.10;;;;;;;21.32;64.41;98394.47;10301772;28;20547;-64
2023/09/21 18:54:45;;;;;;;0.20;0.10;;;;;;;20.99;66.12;98377.00;10311157;28;20050;-63
2023/09/21 18:59:48;;;;;;;0.82;0.10;;;;;;;21.09;64.34;98411.56;10306346;28;20584;-62
2023/09/21 19:04:51;;;;;;;0.17;0.00;;;;;;;20.92;64.09;98435.81;10312893;28;20054;-65
2023/09/21 19:09:53;;;;;;;1.73;0.40;;;;;;;20.88;67.13;98502.22;10308837;28;20050;-62
2023/09/21 19:14:56;;;;;;;0.60;0.20;;;;;;;20.55;70.71;98514.34;10304011;28;20057;-62
2023/09/21 19:20:00;;;;;;;1.92;0.30;;;;;;;20.54;72.15;98515.41;10317754;28;20330;-62
2023/09/21 19:25:01;;;;;;;1.70;0.40;;;;;;;20.37;72.06;98544.94;10309940;28;20046;-64
2023/09/21 19:30:03;;;;;;;2.40;0.38;;;;;;;20.31;73.12;98562.88;10310101;28;20064;-64
2023/09/21 19:35:05;;;;;;;6.82;1.15;;;;;;;20.04;74.25;98601.06;10306768;28;20129;-62
2023/09/21 19:40:06;;;;;;;1.73;0.40;;;;;;;19.74;77.47;98609.88;10308666;28;20524;-62
2023/09/21 19:45:08;;;;;;;1.75;0.45;;;;;;;19.68;80.15;98581.06;10306809;28;20057;-64
2023/09/21 19:50:12;;;;;;;1.38;0.30;;;;;;;19.65;81.62;98538.34;10309205;28;20107;-63
2023/09/21 19:55:14;;;;;;;2.38;0.30;;;;;;;19.77;81.63;98531.16;10307995;28;20157;-63
2023/09/21 20:00:16;;;;;;;3.17;0.57;;;;;;;19.75;79.85;98535.09;10305923;28;20338;-61
2023/09/21 20:05:18;;;;;;;0.85;0.30;;;;;;;19.72;80.68;98525.56;10298929;28;20736;-64
2023/09/21 20:10:19;;;;;;;0.80;0.20;;;;;;;19.70;80.67;98535.78;10308157;28;20050;-64
2023/09/21 20:15:21;;;;;;;1.42;0.55;;;;;;;19.71;80.28;98553.63;10306539;28;20136;-63
2023/09/21 20:20:22;;;;;;;1.67;0.45;;;;;;;19.59;81.11;98568.88;10312260;28;20061;-64
2023/09/21 20:25:24;;;;;;;6.00;0.73;;;;;;;19.45;82.29;98597.06;10310228;28;20366;-63
2023/09/21 20:30:25;;;;;;;4.00;0.60;;;;;;;19.30;82.37;98600.91;10306330;28;20129;-62
2023/09/21 20:35:27;;;;;;;1.20;0.40;;;;;;;19.37;82.56;98638.66;10306574;28;20051;-64
2023/09/21 20:40:28;;;;;;;1.02;0.40;;;;;;;19.27;82.39;98622.94;10305631;28;20158;-63
2023/09/21 20:45:30;;;;;;;1.52;0.20;;;;;;;19.02;83.88;98579.78;10303467;28;20045;-65
2023/09/21 20:50:32;;;;;;;1.42;0.38;;;;;;;19.22;83.70;98609.31;10309786;28;20045;-63
2023/09/21 20:55:33;;;;;;;2.88;0.43;;;;;;;19.15;82.99;98584.25;10304749;28;20061;-64
2023/09/21 21:00:35;;;;;;;3.95;0.60;;;;;;;19.09;85.26;98591.34;10305639;28;20054;-64
2023/09/21 21:05:36;;;;;;;2.38;0.52;;;;;;;19.07;84.27;98609.63;10304014;28;20331;-64
2023/09/21 21:10:38;;;;;;;1.40;0.28;;;;;;;18.98;84.83;98614.44;10305512;28;20129;-64
2023/09/21 21:15:39;;;;;;;2.08;0.30;;;;;;;18.92;85.12;98625.28;10301288;28;20939;-63
2023/09/21 21:20:44;;;;;;;1.95;0.30;;;;;;;18.85;86.15;98609.09;10302664;28;20467;-64
2023/09/21 21:25:45;;;;;;;2.42;0.85;;;;;;;18.85;86.56;98619.91;10308636;28;20480;-63
2023/09/21 21:30:47;;;;;;;0.68;0.40;;;;;;;18.85;86.60;98604.56;10310020;28;20050;-62
2023/09/21 21:35:48;;;;;;;1.65;0.40;;;;;;;18.85;87.02;98615.34;10299162;28;20046;-63
2023/09/21 21:40:50;;;;;;;3.50;0.60;;;;;;;18.83;86.60;98622.00;10310165;28;20054;-63
2023/09/21 21:45:52;;;;;;;1.02;0.43;;;;;;;18.85;87.31;98627.97;10300574;28;20069;-64
2023/09/21 21:50:55;;;;;;;4.20;0.35;;;;;;;18.60;88.13;98619.81;10305692;28;20046;-63
2023/09/21 21:55:56;;;;;;;0.70;0.25;;;;;;;18.63;87.92;98625.63;10306612;28;20061;-63
2023/09/21 22:00:57;;;;;;;2.17;0.30;;;;;;;18.63;88.52;98638.25;10302783;28;20073;-64
2023/09/21 22:05:59;;;;;;;1.67;0.20;;;;;;;18.58;89.16;98630.00;10306051;28;20101;-64
2023/09/21 22:11:00;;;;;;;1.50;0.30;;;;;;;18.58;87.82;98609.25;10308460;28;20380;-63
2023/09/21 22:16:04;;;;;;;1.40;0.30;;;;;;;18.54;88.03;98589.22;10318013;28;20499;-63
2023/09/21 22:21:06;;;;;;;0.85;0.47;;;;;;;18.52;88.17;98588.56;10307773;28;20046;-62
2023/09/21 22:26:09;;;;;;;1.10;0.52;;;;;;;18.47;87.75;98602.69;10311567;28;20053;-64
2023/09/21 22:31:12;;;;;;;2.78;0.80;;;;;;;18.35;88.57;98605.22;10307212;28;20069;-64
2023/09/21 22:36:14;;;;;;;1.92;0.50;;;;;;;18.06;87.72;98546.53;10316794;28;20096;-63
2023/09/21 22:41:16;;;;;;;0.63;0.40;;;;;;;18.31;88.32;98609.38;10307266;28;20069;-67
2023/09/21 22:46:18;;;;;;;1.98;0.50;;;;;;;18.27;88.74;98624.34;10309364;28;20146;-62
2023/09/21 22:51:21;;;;;;;2.10;0.60;;;;;;;18.21;89.53;98625.19;10310589;28;20057;-63
2023/09/21 22:56:23;;;;;;;2.90;0.68;;;;;;;18.14;90.27;98613.63;10308019;28;20054;-64
2023/09/21 23:01:26;;;;;;;1.50;0.60;;;;;;;18.20;90.58;98640.50;10307959;28;20600;-64
2023/09/21 23:06:29;;;;;;;2.30;0.60;;;;;;;18.17;91.16;98640.94;10308909;28;20708;-63
2023/09/21 23:11:31;;;;;;;1.05;0.32;;;;;;;18.12;91.45;98638.06;10309346;28;20049;-64
2023/09/21 23:16:32;;;;;;;1.20;0.40;;;;;;;18.08;90.70;98644.09;10304509;28;20053;-63
2023/09/21 23:21:35;;;;;;;0.88;0.55;;;;;;;18.12;91.20;98658.75;10308817;28;21764;-62
2023/09/21 23:26:38;;;;;;;1.38;0.30;;;;;;;18.02;91.19;98653.81;10307898;28;20048;-64
2023/09/21 23:31:42;;;;;;;1.30;0.50;;;;;;;18.05;91.04;98653.41;10308798;28;20061;-63
2023/09/21 23:36:45;;;;;;;1.40;0.40;;;;;;;18.13;91.13;98672.00;10305439;28;20053;-66